Terminal Aerodrome Forecast
Issued by NWS Des Moines, IA

Home | Current Version | Previous Version | Text Only | Print | Product List | Glossary On
Versions: 1 2 3 4 5 6 7 8 9 10 11 12 13 14 15 16 17 18 19 20 21 22 23 24 25 26 27 28 29 30 31 32 33 34 35 36 37 38 39 40 41 42 43 44 45
000
FTUS43 KDMX 080719 AAA
TAFALO
TAF AMD
KALO 080719Z 0807/0906 30024G32KT 4SM -SN SCT015 OVC035
      TEMPO 0807/0810 1SM -SN BLSN OVC015
     FM081000 32026G38KT 1/2SM SN BLSN SCT006 OVC011
     FM081700 34022G32KT 1SM -SHSN BLSN OVC010
     FM082300 33020G28KT 2SM BLSN OVC015
     FM090400 32017G25KT 5SM BLSN OVC015=

USA.gov is the U.S. government's official web portal to all federal, state and local government web resources and services.